createdAt,value
2019-02-23T00:00:12.573Z,0
2019-02-23T00:01:09.946Z,0
2019-02-23T00:02:10.240Z,0
2019-02-23T00:03:09.987Z,0
2019-02-23T00:04:10.264Z,0
2019-02-23T00:05:10.799Z,0
2019-02-23T00:06:10.305Z,0
2019-02-23T00:07:10.064Z,0
2019-02-23T00:08:10.089Z,0
2019-02-23T00:09:10.127Z,0
2019-02-23T00:10:10.128Z,0
2019-02-23T00:11:10.155Z,0
2019-02-23T00:12:11.474Z,0
2019-02-23T00:13:10.458Z,0
2019-02-23T00:14:10.472Z,0
2019-02-23T00:15:10.494Z,0
2019-02-23T00:16:10.303Z,0
2019-02-23T00:17:10.805Z,0
2019-02-23T00:18:12.652Z,0
2019-02-23T00:19:10.900Z,0
2019-02-23T00:20:10.604Z,0
2019-02-23T00:21:10.104Z,0
2019-02-23T00:22:10.640Z,0
2019-02-23T00:23:10.407Z,0
2019-02-23T00:24:10.177Z,0
2019-02-23T00:25:10.704Z,0
2019-02-23T00:26:10.470Z,0
2019-02-23T00:27:10.764Z,0
2019-02-23T00:28:10.526Z,0
2019-02-23T00:29:11.046Z,0
2019-02-23T00:30:10.299Z,0
2019-02-23T00:31:10.838Z,0
2019-02-23T00:32:10.849Z,0
2019-02-23T00:33:10.617Z,0
2019-02-23T00:34:11.406Z,0
2019-02-23T00:35:10.922Z,0
2019-02-23T00:36:10.680Z,0
2019-02-23T00:37:11.226Z,0
2019-02-23T00:38:10.983Z,0
2019-02-23T00:39:11.001Z,0
2019-02-23T00:40:11.639Z,0
2019-02-23T00:41:10.782Z,0
2019-02-23T00:42:11.328Z,0
2019-02-23T00:43:11.336Z,0
2019-02-23T00:44:10.847Z,0
2019-02-23T00:45:11.127Z,0
2019-02-23T00:46:11.146Z,0
2019-02-23T00:47:10.655Z,0
2019-02-23T00:48:10.926Z,0
2019-02-23T00:49:10.948Z,0
2019-02-23T00:50:11.229Z,0
2019-02-23T00:51:11.244Z,0
2019-02-23T00:52:11.855Z,0
2019-02-23T00:53:11.569Z,0
2019-02-23T00:54:11.051Z,0
2019-02-23T00:55:11.594Z,0
2019-02-23T00:56:11.091Z,0
2019-02-23T00:57:11.888Z,0
2019-02-23T00:58:11.487Z,0
2019-02-23T00:59:11.675Z,0
2019-02-23T01:00:11.195Z,0
2019-02-23T01:01:11.977Z,0
2019-02-23T01:02:12.091Z,0
2019-02-23T01:03:11.245Z,0
2019-02-23T01:04:11.002Z,0
2019-02-23T01:05:11.280Z,0
2019-02-23T01:06:11.319Z,0
2019-02-23T01:07:11.327Z,0
2019-02-23T01:08:11.342Z,0
2019-02-23T01:09:11.879Z,0
2019-02-23T01:10:11.387Z,0
2019-02-23T01:11:11.402Z,0
2019-02-23T01:12:12.025Z,0
2019-02-23T01:13:11.792Z,0
2019-02-23T01:14:11.209Z,0
2019-02-23T01:15:11.510Z,0
2019-02-23T01:16:12.025Z,0
2019-02-23T01:17:11.788Z,0
2019-02-23T01:18:11.544Z,0
2019-02-23T01:19:11.829Z,0
2019-02-23T01:20:11.843Z,0
2019-02-23T01:21:11.626Z,0
2019-02-23T01:22:12.161Z,0
2019-02-23T01:23:11.647Z,0
2019-02-23T01:24:11.934Z,0
2019-02-23T01:25:11.702Z,0
2019-02-23T01:26:11.715Z,0
2019-02-23T01:27:12.293Z,0
2019-02-23T01:28:12.270Z,0
2019-02-23T01:29:11.521Z,0
2019-02-23T01:30:11.538Z,0
2019-02-23T01:31:12.065Z,0
2019-02-23T01:32:11.827Z,0
2019-02-23T01:33:12.117Z,0
2019-02-23T01:34:12.151Z,0
2019-02-23T01:35:11.631Z,0
2019-02-23T01:36:12.426Z,0
2019-02-23T01:37:11.935Z,0
2019-02-23T01:38:11.692Z,0
2019-02-23T01:39:11.974Z,0
2019-02-23T01:40:11.987Z,0
2019-02-23T01:41:12.267Z,0
2019-02-23T01:42:12.303Z,0
2019-02-23T01:43:12.307Z,0
2019-02-23T01:44:12.331Z,0
2019-02-23T01:45:12.350Z,0
2019-02-23T01:46:12.523Z,0
2019-02-23T01:47:12.392Z,0
2019-02-23T01:48:12.405Z,0
2019-02-23T01:49:12.687Z,0
2019-02-23T01:50:12.558Z,0
2019-02-23T01:51:12.472Z,0
2019-02-23T01:52:12.483Z,0
2019-02-23T01:53:12.509Z,0
2019-02-23T01:54:12.802Z,0
2019-02-23T01:55:12.551Z,0
2019-02-23T01:56:12.047Z,0
2019-02-23T01:57:12.587Z,0
2019-02-23T01:58:12.085Z,0
2019-02-23T01:59:13.143Z,0
2019-02-23T02:00:12.671Z,0
2019-02-23T02:01:12.405Z,0
2019-02-23T02:02:12.967Z,0
2019-02-23T02:03:12.765Z,0
2019-02-23T02:04:13.033Z,0
2019-02-23T02:05:12.506Z,0
2019-02-23T02:06:12.511Z,0
2019-02-23T02:07:12.563Z,0
2019-02-23T02:08:13.069Z,0
2019-02-23T02:09:12.568Z,0
2019-02-23T02:10:12.594Z,0
2019-02-23T02:11:12.399Z,0
2019-02-23T02:12:13.143Z,0
2019-02-23T02:13:12.388Z,0
2019-02-23T02:14:12.923Z,0
2019-02-23T02:15:12.949Z,0
2019-02-23T02:16:13.220Z,0
2019-02-23T02:17:12.983Z,0
2019-02-23T02:18:12.771Z,0
2019-02-23T02:19:12.766Z,0
2019-02-23T02:20:20.740Z,0
2019-02-23T02:21:13.063Z,0
2019-02-23T02:22:13.083Z,0
2019-02-23T02:23:12.597Z,0
2019-02-23T02:24:13.121Z,0
2019-02-23T02:25:13.139Z,0
2019-02-23T02:26:12.897Z,0
2019-02-23T02:27:13.181Z,0
2019-02-23T02:28:13.007Z,0
2019-02-23T02:29:13.231Z,0
2019-02-23T02:30:13.529Z,0
2019-02-23T02:31:13.255Z,0
2019-02-23T02:32:13.077Z,0
2019-02-23T02:33:13.039Z,0
2019-02-23T02:34:12.806Z,0
2019-02-23T02:35:13.333Z,0
2019-02-23T02:36:13.101Z,0
2019-02-23T02:37:13.547Z,0
2019-02-23T02:38:13.651Z,0
2019-02-23T02:39:12.908Z,0
2019-02-23T02:40:13.437Z,0
2019-02-23T02:41:13.227Z,0
2019-02-23T02:42:13.215Z,0
2019-02-23T02:43:14.008Z,0
2019-02-23T02:44:14.044Z,0
2019-02-23T02:45:13.951Z,0
2019-02-23T02:46:13.547Z,0
2019-02-23T02:47:13.313Z,0
2019-02-23T02:48:13.344Z,0
2019-02-23T02:49:13.655Z,0
2019-02-23T02:50:26.253Z,0
2019-02-23T02:51:13.653Z,0
2019-02-23T02:52:14.000Z,0
2019-02-23T02:53:13.422Z,0
2019-02-23T02:54:13.451Z,0
2019-02-23T02:55:13.734Z,0
2019-02-23T02:56:13.484Z,0
2019-02-23T02:57:13.760Z,0
2019-02-23T02:58:13.782Z,0
2019-02-23T02:59:13.287Z,0
2019-02-23T03:00:13.299Z,0
2019-02-23T03:01:13.323Z,0
2019-02-23T03:02:13.859Z,0
2019-02-23T03:03:13.363Z,0
2019-02-23T03:04:14.037Z,0
2019-02-23T03:05:14.185Z,0
2019-02-23T03:06:13.676Z,0
2019-02-23T03:07:13.455Z,0
2019-02-23T03:08:13.716Z,0
2019-02-23T03:09:13.731Z,0
2019-02-23T03:10:13.753Z,0
2019-02-23T03:11:13.769Z,0
2019-02-23T03:12:14.320Z,0
2019-02-23T03:13:14.340Z,0
2019-02-23T03:14:14.086Z,0
2019-02-23T03:15:14.560Z,0
2019-02-23T03:16:14.157Z,0
2019-02-23T03:17:14.139Z,0
2019-02-23T03:18:14.167Z,0
2019-02-23T03:19:14.198Z,0
2019-02-23T03:20:14.213Z,0
2019-02-23T03:21:14.502Z,0
2019-02-23T03:22:14.793Z,0
2019-02-23T03:23:13.999Z,0
2019-02-23T03:24:14.026Z,0
2019-02-23T03:25:14.065Z,0
2019-02-23T03:26:14.344Z,0
2019-02-23T03:27:14.340Z,0
2019-02-23T03:28:14.385Z,0
2019-02-23T03:29:14.111Z,0
2019-02-23T03:30:14.541Z,0
2019-02-23T03:31:14.984Z,0
2019-02-23T03:32:14.192Z,0
2019-02-23T03:33:14.212Z,0
2019-02-23T03:34:14.147Z,0
2019-02-23T03:35:14.526Z,0
2019-02-23T03:36:13.995Z,0
2019-02-23T03:37:14.267Z,0
2019-02-23T03:38:14.535Z,0
2019-02-23T03:39:14.816Z,0
2019-02-23T03:40:14.322Z,0
2019-02-23T03:41:14.357Z,0
2019-02-23T03:42:14.619Z,0
2019-02-23T03:43:14.124Z,0
2019-02-23T03:44:14.919Z,0
2019-02-23T03:45:14.423Z,0
2019-02-23T03:46:14.190Z,0
2019-02-23T03:47:14.978Z,0
2019-02-23T03:48:14.994Z,0
2019-02-23T03:49:14.748Z,0
2019-02-23T03:50:14.253Z,0
2019-02-23T03:51:14.790Z,0
2019-02-23T03:52:14.570Z,0
2019-02-23T03:53:14.826Z,0
2019-02-23T03:54:15.394Z,0
2019-02-23T03:55:14.620Z,0
2019-02-23T03:56:15.149Z,0
2019-02-23T03:57:14.642Z,0
2019-02-23T03:58:14.926Z,0
2019-02-23T03:59:14.936Z,0
2019-02-23T04:00:15.232Z,0
2019-02-23T04:01:14.972Z,0
2019-02-23T04:02:14.480Z,0
2019-02-23T04:03:15.021Z,0
2019-02-23T04:04:15.288Z,0
2019-02-23T04:05:15.067Z,0
2019-02-23T04:06:14.822Z,0
2019-02-23T04:07:14.841Z,0
2019-02-23T04:08:14.849Z,0
2019-02-23T04:09:14.875Z,0
2019-02-23T04:10:15.401Z,0
2019-02-23T04:11:14.903Z,0
2019-02-23T04:12:15.181Z,0
2019-02-23T04:13:14.697Z,0
2019-02-23T04:14:14.960Z,0
2019-02-23T04:15:15.507Z,0
2019-02-23T04:16:15.778Z,0
2019-02-23T04:17:15.280Z,0
2019-02-23T04:18:15.287Z,0
2019-02-23T04:19:15.065Z,0
2019-02-23T04:20:15.361Z,0
2019-02-23T04:21:15.606Z,0
2019-02-23T04:22:15.173Z,0
2019-02-23T04:23:15.383Z,0
2019-02-23T04:24:15.158Z,0
2019-02-23T04:25:15.176Z,0
2019-02-23T04:26:15.179Z,0
2019-02-23T04:27:15.991Z,0
2019-02-23T04:28:15.733Z,0
2019-02-23T04:29:14.995Z,0
2019-02-23T04:30:15.517Z,0
2019-02-23T04:31:15.806Z,0
2019-02-23T04:32:15.296Z,0
2019-02-23T04:33:15.320Z,0
2019-02-23T04:34:15.601Z,0
2019-02-23T04:35:16.135Z,0
2019-02-23T04:36:15.637Z,0
2019-02-23T04:37:15.707Z,0
2019-02-23T04:38:15.935Z,0
2019-02-23T04:39:15.942Z,0
2019-02-23T04:40:15.497Z,0
2019-02-23T04:41:15.720Z,0
2019-02-23T04:42:15.223Z,0
2019-02-23T04:43:15.234Z,0
2019-02-23T04:44:15.779Z,0
2019-02-23T04:45:15.798Z,0
2019-02-23T04:46:15.810Z,0
2019-02-23T04:47:15.593Z,0
2019-02-23T04:48:15.589Z,0
2019-02-23T04:49:15.617Z,0
2019-02-23T04:50:15.454Z,0
2019-02-23T04:51:23.277Z,0
2019-02-23T04:52:16.434Z,0
2019-02-23T04:53:16.199Z,0
2019-02-23T04:54:15.953Z,0
2019-02-23T04:55:15.727Z,0
2019-02-23T04:56:16.273Z,0
2019-02-23T04:57:16.321Z,0
2019-02-23T04:58:15.795Z,0
2019-02-23T04:59:15.530Z,0
2019-02-23T05:00:16.073Z,0
2019-02-23T05:01:15.830Z,0
2019-02-23T05:02:16.106Z,0
2019-02-23T05:03:16.374Z,0
2019-02-23T05:04:16.161Z,0
2019-02-23T05:05:15.664Z,0
2019-02-23T05:06:16.450Z,0
2019-02-23T05:07:16.192Z,0
2019-02-23T05:08:15.960Z,0
2019-02-23T05:09:16.240Z,0
2019-02-23T05:10:16.282Z,0
2019-02-23T05:11:16.277Z,0
2019-02-23T05:12:16.309Z,0
2019-02-23T05:13:16.089Z,0
2019-02-23T05:14:16.322Z,0
2019-02-23T05:15:16.387Z,0
2019-02-23T05:16:16.655Z,0
2019-02-23T05:17:16.125Z,0
2019-02-23T05:18:16.397Z,0
2019-02-23T05:19:16.425Z,0
2019-02-23T05:20:16.174Z,0
2019-02-23T05:21:28.101Z,0
2019-02-23T05:22:16.211Z,0
2019-02-23T05:23:15.982Z,0
2019-02-23T05:24:16.762Z,0
2019-02-23T05:25:16.524Z,0
2019-02-23T05:26:16.544Z,0
2019-02-23T05:27:16.564Z,0
2019-02-23T05:28:16.583Z,0
2019-02-23T05:29:16.077Z,0
2019-02-23T05:30:17.011Z,0
2019-02-23T05:31:16.892Z,0
2019-02-23T05:32:16.391Z,0
2019-02-23T05:33:16.160Z,0
2019-02-23T05:34:16.945Z,0
2019-02-23T05:35:17.225Z,0
2019-02-23T05:36:16.467Z,0
2019-02-23T05:37:16.731Z,0
2019-02-23T05:38:16.496Z,0
2019-02-23T05:39:17.814Z,0
2019-02-23T05:40:16.810Z,0
2019-02-23T05:41:16.556Z,0
2019-02-23T05:42:17.102Z,0
2019-02-23T05:43:17.099Z,0
2019-02-23T05:44:16.608Z,0
2019-02-23T05:45:17.149Z,0
2019-02-23T05:46:17.163Z,0
2019-02-23T05:47:16.917Z,0
2019-02-23T05:48:16.932Z,0
2019-02-23T05:49:17.042Z,0
2019-02-23T05:50:17.091Z,0
2019-02-23T05:51:16.989Z,0
2019-02-23T05:52:17.010Z,0
2019-02-23T05:53:17.021Z,0
2019-02-23T05:54:17.051Z,0
2019-02-23T05:55:16.826Z,0
2019-02-23T05:56:22.299Z,0
2019-02-23T05:57:16.845Z,0
2019-02-23T05:58:17.386Z,0
2019-02-23T05:59:16.874Z,0
2019-02-23T06:00:16.910Z,0
2019-02-23T06:01:16.912Z,0
2019-02-23T06:02:17.443Z,0
2019-02-23T06:03:16.683Z,0
2019-02-23T06:04:17.218Z,0
2019-02-23T06:05:17.252Z,0
2019-02-23T06:06:17.257Z,0
2019-02-23T06:07:17.275Z,0
2019-02-23T06:08:17.036Z,0
2019-02-23T06:09:17.564Z,0
2019-02-23T06:10:17.600Z,0
2019-02-23T06:11:17.620Z,0
2019-02-23T06:12:17.632Z,0
2019-02-23T06:13:17.653Z,0
2019-02-23T06:14:17.482Z,0
2019-02-23T06:15:17.422Z,0
2019-02-23T06:16:17.451Z,0
2019-02-23T06:17:17.460Z,0
2019-02-23T06:18:17.469Z,0
2019-02-23T06:19:17.582Z,0
2019-02-23T06:20:17.785Z,0
2019-02-23T06:21:17.283Z,0
2019-02-23T06:22:17.802Z,0
2019-02-23T06:23:17.729Z,0
2019-02-23T06:24:17.861Z,0
2019-02-23T06:25:17.404Z,0
2019-02-23T06:26:17.450Z,0
2019-02-23T06:27:17.628Z,0
2019-02-23T06:28:17.956Z,0
2019-02-23T06:29:17.669Z,0
2019-02-23T06:30:20.657Z,0
2019-02-23T06:31:18.286Z,0
2019-02-23T06:32:17.206Z,0
2019-02-23T06:33:18.243Z,0
2019-02-23T06:34:25.560Z,0
2019-02-23T06:35:17.780Z,0
2019-02-23T06:36:17.847Z,0
2019-02-23T06:37:17.282Z,0
2019-02-23T06:38:17.569Z,0
2019-02-23T06:39:17.841Z,0
2019-02-23T06:40:17.362Z,0
2019-02-23T06:41:17.874Z,0
2019-02-23T06:42:17.895Z,5
2019-02-23T06:43:17.422Z,5
2019-02-23T06:44:17.669Z,5
2019-02-23T06:45:17.431Z,5
2019-02-23T06:46:17.957Z,5
2019-02-23T06:47:17.720Z,5
2019-02-23T06:48:19.823Z,5
2019-02-23T06:49:17.771Z,5
2019-02-23T06:50:17.523Z,5
2019-02-23T06:51:18.058Z,5
2019-02-23T06:52:18.321Z,5
2019-02-23T06:53:17.593Z,5
2019-02-23T06:54:18.098Z,5
2019-02-23T06:55:18.140Z,5
2019-02-23T06:56:18.139Z,5
2019-02-23T06:57:18.147Z,5
2019-02-23T06:58:18.438Z,10
2019-02-23T06:59:17.933Z,10
2019-02-23T07:00:17.955Z,10
2019-02-23T07:01:18.229Z,10
2019-02-23T07:02:17.988Z,10
2019-02-23T07:03:18.260Z,10
2019-02-23T07:04:18.029Z,10
2019-02-23T07:05:18.576Z,10
2019-02-23T07:06:18.579Z,10
2019-02-23T07:07:18.329Z,10
2019-02-23T07:08:17.840Z,10
2019-02-23T07:09:18.115Z,10
2019-02-23T07:10:18.655Z,10
2019-02-23T07:11:19.769Z,15
2019-02-23T07:12:18.161Z,15
2019-02-23T07:13:18.950Z,15
2019-02-23T07:14:18.712Z,15
2019-02-23T07:15:18.463Z,15
2019-02-23T07:16:18.536Z,15
2019-02-23T07:17:19.033Z,15
2019-02-23T07:18:18.260Z,15
2019-02-23T07:19:18.797Z,15
2019-02-23T07:20:18.555Z,15
2019-02-23T07:21:18.311Z,15
2019-02-23T07:22:24.654Z,20
2019-02-23T07:23:18.602Z,20
2019-02-23T07:24:18.371Z,20
2019-02-23T07:25:19.165Z,20
2019-02-23T07:26:18.917Z,20
2019-02-23T07:27:18.956Z,20
2019-02-23T07:28:19.850Z,20
2019-02-23T07:29:18.850Z,20
2019-02-23T07:30:18.741Z,20
2019-02-23T07:31:18.999Z,20
2019-02-23T07:32:19.026Z,20
2019-02-23T07:33:34.050Z,20
2019-02-23T07:34:19.330Z,20
2019-02-23T07:35:18.836Z,20
2019-02-23T07:36:18.582Z,20
2019-02-23T07:37:18.865Z,20
2019-02-23T07:38:18.911Z,25
2019-02-23T07:39:19.147Z,25
2019-02-23T07:40:18.920Z,25
2019-02-23T07:41:18.662Z,25
2019-02-23T07:42:19.205Z,25
2019-02-23T07:43:18.699Z,25
2019-02-23T07:44:18.776Z,25
2019-02-23T07:45:19.259Z,25
2019-02-23T07:46:18.497Z,25
2019-02-23T07:47:19.033Z,25
2019-02-23T07:48:18.620Z,25
2019-02-23T07:49:18.818Z,25
2019-02-23T07:50:19.341Z,25
2019-02-23T07:51:18.848Z,25
2019-02-23T07:52:28.796Z,25
2019-02-23T07:53:18.878Z,25
2019-02-23T07:54:19.412Z,25
2019-02-23T07:55:19.236Z,25
2019-02-23T07:56:19.192Z,25
2019-02-23T07:57:18.953Z,30
2019-02-23T07:58:19.225Z,30
2019-02-23T07:59:19.249Z,30
2019-02-23T08:00:19.275Z,30
2019-02-23T08:01:19.279Z,30
2019-02-23T08:02:19.041Z,30
2019-02-23T08:03:18.798Z,30
2019-02-23T08:04:19.332Z,30
2019-02-23T08:05:19.141Z,30
2019-02-23T08:06:19.115Z,30
2019-02-23T08:07:19.136Z,30
2019-02-23T08:08:18.891Z,30
2019-02-23T08:09:19.167Z,30
2019-02-23T08:10:19.729Z,30
2019-02-23T08:11:19.452Z,30
2019-02-23T08:12:19.220Z,30
2019-02-23T08:13:19.495Z,30
2019-02-23T08:14:19.767Z,30
2019-02-23T08:15:19.538Z,30
2019-02-23T08:16:19.608Z,30
2019-02-23T08:17:19.309Z,30
2019-02-23T08:18:19.580Z,30
2019-02-23T08:19:19.338Z,30
2019-02-23T08:20:19.725Z,30
2019-02-23T08:21:19.446Z,30
2019-02-23T08:22:19.656Z,30
2019-02-23T08:23:19.158Z,30
2019-02-23T08:24:19.438Z,30
2019-02-23T08:25:19.708Z,30
2019-02-23T08:26:19.721Z,30
2019-02-23T08:27:19.745Z,35
2019-02-23T08:28:19.754Z,35
2019-02-23T08:29:19.514Z,35
2019-02-23T08:30:19.535Z,35
2019-02-23T08:31:22.744Z,35
2019-02-23T08:32:19.851Z,35
2019-02-23T08:33:19.330Z,35
2019-02-23T08:34:19.871Z,35
2019-02-23T08:35:19.371Z,35
2019-02-23T08:36:20.150Z,35
2019-02-23T08:37:19.922Z,35
2019-02-23T08:38:19.672Z,35
2019-02-23T08:39:19.954Z,35
2019-02-23T08:40:20.494Z,35
2019-02-23T08:41:19.992Z,35
2019-02-23T08:42:19.747Z,35
2019-02-23T08:43:23.211Z,35
2019-02-23T08:44:19.809Z,35
2019-02-23T08:45:19.814Z,35
2019-02-23T08:46:20.081Z,35
2019-02-23T08:47:20.353Z,35
2019-02-23T08:48:19.869Z,35
2019-02-23T08:49:20.144Z,35
2019-02-23T08:50:19.898Z,35
2019-02-23T08:51:20.427Z,35
2019-02-23T08:52:19.931Z,35
2019-02-23T08:53:20.198Z,35
2019-02-23T08:54:19.787Z,35
2019-02-23T08:55:19.980Z,35
2019-02-23T08:56:20.253Z,35
2019-02-23T08:57:20.534Z,35
2019-02-23T08:58:19.770Z,35
2019-02-23T08:59:20.057Z,40
2019-02-23T09:00:20.086Z,40
2019-02-23T09:01:20.602Z,40
2019-02-23T09:02:20.622Z,40
2019-02-23T09:03:20.130Z,40
2019-02-23T09:04:20.185Z,40
2019-02-23T09:05:20.432Z,40
2019-02-23T09:06:20.175Z,45
2019-02-23T09:07:20.200Z,40
2019-02-23T09:08:21.064Z,40
2019-02-23T09:09:20.241Z,40
2019-02-23T09:10:20.535Z,40
2019-02-23T09:11:20.268Z,40
2019-02-23T09:12:20.539Z,40
2019-02-23T09:13:20.304Z,35
2019-02-23T09:14:20.322Z,35
2019-02-23T09:15:22.219Z,35
2019-02-23T09:16:21.136Z,35
2019-02-23T09:17:20.381Z,35
2019-02-23T09:18:20.645Z,35
2019-02-23T09:19:20.674Z,35
2019-02-23T09:20:31.210Z,40
2019-02-23T09:21:20.729Z,40
2019-02-23T09:22:20.484Z,40
2019-02-23T09:23:20.777Z,35
2019-02-23T09:24:20.832Z,40
2019-02-23T09:25:20.533Z,40
2019-02-23T09:26:20.276Z,40
2019-02-23T09:27:20.299Z,40
2019-02-23T09:28:20.319Z,40
2019-02-23T09:29:20.743Z,40
2019-02-23T09:30:20.618Z,40
2019-02-23T09:31:20.886Z,40
2019-02-23T09:32:20.647Z,40
2019-02-23T09:33:20.664Z,40
2019-02-23T09:34:21.217Z,40
2019-02-23T09:35:21.218Z,40
2019-02-23T09:36:21.325Z,40
2019-02-23T09:37:21.253Z,40
2019-02-23T09:38:21.020Z,40
2019-02-23T09:39:21.035Z,40
2019-02-23T09:40:21.316Z,40
2019-02-23T09:41:21.397Z,40
2019-02-23T09:42:21.085Z,40
2019-02-23T09:43:22.746Z,40
2019-02-23T09:44:21.384Z,40
2019-02-23T09:45:20.636Z,40
2019-02-23T09:46:21.225Z,40
2019-02-23T09:47:20.913Z,40
2019-02-23T09:48:21.478Z,40
2019-02-23T09:49:20.762Z,40
2019-02-23T09:50:20.970Z,40
2019-02-23T09:51:20.993Z,40
2019-02-23T09:52:21.268Z,40
2019-02-23T09:53:21.287Z,40
2019-02-23T09:54:21.043Z,40
2019-02-23T09:55:21.062Z,40
2019-02-23T09:56:21.088Z,40
2019-02-23T09:57:21.613Z,40
2019-02-23T09:58:21.111Z,40
2019-02-23T09:59:21.168Z,40
2019-02-23T10:00:21.155Z,45
2019-02-23T10:01:21.429Z,45
2019-02-23T10:02:21.442Z,45
2019-02-23T10:03:21.729Z,40
2019-02-23T10:04:21.274Z,45
2019-02-23T10:05:20.987Z,45
2019-02-23T10:06:21.258Z,45
2019-02-23T10:07:22.053Z,45
2019-02-23T10:08:21.549Z,45
2019-02-23T10:09:21.832Z,45
2019-02-23T10:10:21.596Z,45
2019-02-23T10:11:21.867Z,45
2019-02-23T10:12:21.370Z,45
2019-02-23T10:13:21.645Z,45
2019-02-23T10:14:21.439Z,45
2019-02-23T10:15:21.427Z,45
2019-02-23T10:16:21.442Z,45
2019-02-23T10:17:21.458Z,45
2019-02-23T10:18:21.802Z,45
2019-02-23T10:19:21.505Z,45
2019-02-23T10:20:21.258Z,45
2019-02-23T10:21:21.792Z,45
2019-02-23T10:22:21.546Z,45
2019-02-23T10:23:30.627Z,45
2019-02-23T10:24:21.998Z,45
2019-02-23T10:25:22.119Z,45
2019-02-23T10:26:22.137Z,45
2019-02-23T10:27:21.898Z,45
2019-02-23T10:28:21.993Z,45
2019-02-23T10:29:21.942Z,45
2019-02-23T10:30:22.035Z,50
2019-02-23T10:31:21.966Z,50
2019-02-23T10:32:22.503Z,45
2019-02-23T10:33:22.007Z,45
2019-02-23T10:34:22.290Z,45
2019-02-23T10:35:21.796Z,45
2019-02-23T10:36:22.081Z,45
2019-02-23T10:37:21.848Z,45
2019-02-23T10:38:21.849Z,45
2019-02-23T10:39:22.124Z,45
2019-02-23T10:40:22.393Z,45
2019-02-23T10:41:22.163Z,45
2019-02-23T10:42:22.433Z,45
2019-02-23T10:43:22.202Z,45
2019-02-23T10:44:21.961Z,40
2019-02-23T10:45:21.716Z,40
2019-02-23T10:46:22.250Z,40
2019-02-23T10:47:22.271Z,45
2019-02-23T10:48:22.282Z,45
2019-02-23T10:49:22.845Z,45
2019-02-23T10:50:22.072Z,45
2019-02-23T10:51:21.820Z,45
2019-02-23T10:52:22.360Z,45
2019-02-23T10:53:32.378Z,50
2019-02-23T10:54:22.137Z,50
2019-02-23T10:55:22.210Z,50
2019-02-23T10:56:22.507Z,50
2019-02-23T10:57:22.450Z,50
2019-02-23T10:58:21.953Z,50
2019-02-23T10:59:22.502Z,50
2019-02-23T11:00:22.250Z,50
2019-02-23T11:01:22.010Z,50
2019-02-23T11:02:22.537Z,55
2019-02-23T11:03:22.563Z,55
2019-02-23T11:04:22.373Z,55
2019-02-23T11:05:22.594Z,55
2019-02-23T11:06:22.361Z,55
2019-02-23T11:07:22.378Z,55
2019-02-23T11:08:22.737Z,55
2019-02-23T11:09:22.160Z,55
2019-02-23T11:10:22.752Z,55
2019-02-23T11:11:23.219Z,55
2019-02-23T11:12:22.807Z,55
2019-02-23T11:13:22.490Z,55
2019-02-23T11:14:22.764Z,55
2019-02-23T11:15:22.529Z,55
2019-02-23T11:16:22.797Z,55
2019-02-23T11:17:22.303Z,55
2019-02-23T11:18:23.359Z,55
2019-02-23T11:19:23.370Z,55
2019-02-23T11:20:22.614Z,60
2019-02-23T11:21:23.156Z,60
2019-02-23T11:22:22.659Z,60
2019-02-23T11:23:22.682Z,60
2019-02-23T11:24:25.634Z,60
2019-02-23T11:25:22.560Z,60
2019-02-23T11:26:23.064Z,60
2019-02-23T11:27:22.742Z,60
2019-02-23T11:28:22.769Z,60
2019-02-23T11:29:23.047Z,60
2019-02-23T11:30:23.314Z,60
2019-02-23T11:31:23.231Z,55
2019-02-23T11:32:23.098Z,55
2019-02-23T11:33:22.863Z,55
2019-02-23T11:34:22.880Z,55
2019-02-23T11:35:24.313Z,55
2019-02-23T11:36:22.914Z,55
2019-02-23T11:37:23.192Z,55
2019-02-23T11:38:23.465Z,55
2019-02-23T11:39:22.758Z,55
2019-02-23T11:40:25.917Z,55
2019-02-23T11:41:23.264Z,55
2019-02-23T11:42:23.282Z,50
2019-02-23T11:43:23.560Z,50
2019-02-23T11:44:23.064Z,50
2019-02-23T11:45:22.874Z,50
2019-02-23T11:46:22.855Z,50
2019-02-23T11:47:23.374Z,50
2019-02-23T11:48:23.142Z,50
2019-02-23T11:49:23.437Z,50
2019-02-23T11:50:23.486Z,50
2019-02-23T11:51:23.454Z,50
2019-02-23T11:52:23.034Z,50
2019-02-23T11:53:23.236Z,50
2019-02-23T11:54:23.257Z,50
2019-02-23T11:55:23.532Z,50
2019-02-23T11:56:23.584Z,50
2019-02-23T11:57:23.307Z,50
2019-02-23T11:58:23.584Z,50
2019-02-23T11:59:23.644Z,50
2019-02-23T12:00:23.370Z,50
2019-02-23T12:01:23.385Z,50
2019-02-23T12:02:23.147Z,50
2019-02-23T12:03:23.682Z,50
2019-02-23T12:04:23.741Z,50
2019-02-23T12:05:23.974Z,50
2019-02-23T12:06:23.469Z,50
2019-02-23T12:07:24.029Z,50
2019-02-23T12:08:23.256Z,50
2019-02-23T12:09:24.047Z,55
2019-02-23T12:10:23.801Z,55
2019-02-23T12:11:24.083Z,55
2019-02-23T12:12:23.587Z,55
2019-02-23T12:13:24.141Z,55
2019-02-23T12:14:25.804Z,55
2019-02-23T12:15:23.672Z,55
2019-02-23T12:16:23.925Z,55
2019-02-23T12:17:23.942Z,60
2019-02-23T12:18:24.226Z,60
2019-02-23T12:19:23.979Z,60
2019-02-23T12:20:23.494Z,60
2019-02-23T12:21:24.279Z,60
2019-02-23T12:22:24.065Z,60
2019-02-23T12:23:24.336Z,60
2019-02-23T12:24:23.553Z,60
2019-02-23T12:25:25.574Z,60
2019-02-23T12:26:23.876Z,60
2019-02-23T12:27:24.393Z,60
2019-02-23T12:28:24.145Z,60
2019-02-23T12:29:23.907Z,60
2019-02-23T12:30:24.186Z,60
2019-02-23T12:31:23.942Z,60
2019-02-23T12:32:24.475Z,60
2019-02-23T12:33:23.986Z,60
2019-02-23T12:34:24.770Z,65
2019-02-23T12:35:23.761Z,65
2019-02-23T12:36:24.292Z,65
2019-02-23T12:37:23.800Z,65
2019-02-23T12:38:24.075Z,65
2019-02-23T12:39:24.349Z,65
2019-02-23T12:40:24.112Z,60
2019-02-23T12:41:24.655Z,60
2019-02-23T12:42:24.404Z,60
2019-02-23T12:43:24.430Z,60
2019-02-23T12:44:24.187Z,55
2019-02-23T12:45:24.466Z,55
2019-02-23T12:46:24.227Z,55
2019-02-23T12:47:24.759Z,55
2019-02-23T12:48:24.010Z,55
2019-02-23T12:49:24.796Z,55
2019-02-23T12:50:24.303Z,55
2019-02-23T12:51:24.836Z,55
2019-02-23T12:52:24.339Z,55
2019-02-23T12:53:24.628Z,55
2019-02-23T12:54:25.993Z,55
2019-02-23T12:55:24.920Z,55
2019-02-23T12:56:24.415Z,55
2019-02-23T12:57:24.430Z,55
2019-02-23T12:58:24.191Z,55
2019-02-23T12:59:24.728Z,55
2019-02-23T13:00:24.493Z,55
2019-02-23T13:01:24.764Z,55
2019-02-23T13:02:24.526Z,55
2019-02-23T13:03:24.540Z,55
2019-02-23T13:04:25.335Z,55
2019-02-23T13:05:24.833Z,55
2019-02-23T13:06:24.603Z,55
2019-02-23T13:07:25.136Z,55
2019-02-23T13:08:24.888Z,55
2019-02-23T13:09:24.663Z,55
2019-02-23T13:10:24.936Z,55
2019-02-23T13:11:24.844Z,55
2019-02-23T13:12:24.533Z,55
2019-02-23T13:13:24.725Z,50
2019-02-23T13:14:25.005Z,55
2019-02-23T13:15:25.023Z,55
2019-02-23T13:16:25.305Z,55
2019-02-23T13:17:25.060Z,55
2019-02-23T13:18:24.569Z,55
2019-02-23T13:19:24.855Z,55
2019-02-23T13:20:24.605Z,55
2019-02-23T13:21:25.146Z,60
2019-02-23T13:22:25.160Z,55
2019-02-23T13:23:24.660Z,60
2019-02-23T13:24:35.018Z,55
2019-02-23T13:25:24.961Z,60
2019-02-23T13:26:24.979Z,55
2019-02-23T13:27:25.249Z,55
2019-02-23T13:28:25.541Z,60
2019-02-23T13:29:24.774Z,60
2019-02-23T13:30:25.056Z,60
2019-02-23T13:31:25.687Z,60
2019-02-23T13:32:25.102Z,60
2019-02-23T13:33:24.849Z,60
2019-02-23T13:34:24.873Z,60
2019-02-23T13:35:25.663Z,55
2019-02-23T13:36:24.910Z,60
2019-02-23T13:37:25.190Z,55
2019-02-23T13:38:25.719Z,55
2019-02-23T13:39:25.740Z,55
2019-02-23T13:40:25.761Z,55
2019-02-23T13:41:25.524Z,55
2019-02-23T13:42:25.532Z,50
2019-02-23T13:43:25.810Z,50
2019-02-23T13:44:25.978Z,50
2019-02-23T13:45:25.085Z,50
2019-02-23T13:46:25.560Z,50
2019-02-23T13:47:25.637Z,45
2019-02-23T13:48:27.736Z,45
2019-02-23T13:49:25.974Z,45
2019-02-23T13:50:27.860Z,45
2019-02-23T13:51:25.540Z,40
2019-02-23T13:52:25.985Z,40
2019-02-23T13:53:25.740Z,40
2019-02-23T13:54:26.021Z,40
2019-02-23T13:55:27.009Z,40
2019-02-23T13:56:25.554Z,40
2019-02-23T13:57:25.577Z,35
2019-02-23T13:58:28.056Z,35
2019-02-23T13:59:25.879Z,35
2019-02-23T14:00:25.621Z,35
2019-02-23T14:01:25.642Z,35
2019-02-23T14:02:25.664Z,35
2019-02-23T14:03:25.940Z,35
2019-02-23T14:04:27.977Z,35
2019-02-23T14:05:25.714Z,35
2019-02-23T14:06:26.523Z,35
2019-02-23T14:07:27.667Z,35
2019-02-23T14:08:26.107Z,35
2019-02-23T14:09:25.792Z,35
2019-02-23T14:10:25.811Z,35
2019-02-23T14:11:27.273Z,35
2019-02-23T14:12:25.854Z,35
2019-02-23T14:13:25.612Z,35
2019-02-23T14:14:25.885Z,35
2019-02-23T14:15:26.161Z,35
2019-02-23T14:16:26.474Z,35
2019-02-23T14:17:25.689Z,35
2019-02-23T14:18:25.970Z,35
2019-02-23T14:19:26.240Z,35
2019-02-23T14:20:26.529Z,35
2019-02-23T14:21:26.536Z,35
2019-02-23T14:22:26.038Z,35
2019-02-23T14:23:26.324Z,35
2019-02-23T14:24:26.597Z,40
2019-02-23T14:25:26.350Z,40
2019-02-23T14:26:26.120Z,40
2019-02-23T14:27:25.874Z,40
2019-02-23T14:28:26.149Z,40
2019-02-23T14:29:25.914Z,45
2019-02-23T14:30:25.932Z,45